Time;durP1;ratioP1;P1;durP2;ratioP2;P2;SDS_P1;SDS_P2;PMS_P1;PMS_P2;Temp;Humidity;BMP_temperature;BMP_pressure;BME280_temperature;BME280_humidity;BME280_pressure;Samples;Min_cycle;Max_cycle;Signal;HPM_P1;HPM_P2
2023/09/03 00:01:22;;;;;;;28.37;24.50;;;;;;;;;;5024732;28;20434;-73
2023/09/03 00:03:48;;;;;;;25.73;23.07;;;;;;;;;;5024588;28;20411;-73
2023/09/03 00:06:14;;;;;;;26.20;23.50;;;;;;;;;;5025762;28;20430;-73
2023/09/03 00:08:40;;;;;;;24.47;22.03;;;;;;;;;;5037648;28;20433;-73
2023/09/03 00:11:06;;;;;;;24.90;22.27;;;;;;;;;;5031772;28;20865;-73
2023/09/03 00:13:32;;;;;;;25.53;22.17;;;;;;;;;;5034234;28;20532;-73
2023/09/03 00:15:58;;;;;;;25.07;22.67;;;;;;;;;;5040777;28;20508;-73
2023/09/03 00:18:24;;;;;;;25.60;23.20;;;;;;;;;;5031717;28;20536;-73
2023/09/03 00:21:02;;;;;;;25.70;23.10;;;;;;;;;;5038266;28;20434;-73
2023/09/03 00:23:28;;;;;;;29.90;24.07;;;;;;;;;;5028544;28;20458;-73
2023/09/03 00:25:58;;;;;;;26.07;23.50;;;;;;;;;;5035674;28;20522;-73
2023/09/03 00:28:25;;;;;;;25.73;23.10;;;;;;;;;;5028195;28;20461;-73
2023/09/03 00:31:04;;;;;;;24.90;22.30;;;;;;;;;;5033276;28;20515;-73
2023/09/03 00:33:30;;;;;;;25.90;22.90;;;;;;;;;;5033736;28;20437;-73
2023/09/03 00:35:56;;;;;;;26.27;23.53;;;;;;;;;;5036597;28;20961;-73
2023/09/03 00:38:22;;;;;;;26.80;24.07;;;;;;;;;;5029227;28;20968;-73
2023/09/03 00:40:48;;;;;;;26.80;23.90;;;;;;;;;;5025066;28;20426;-73
2023/09/03 00:43:14;;;;;;;24.93;22.40;;;;;;;;;;5029223;28;20456;-73
2023/09/03 00:45:42;;;;;;;27.33;24.43;;;;;;;;;;5025842;28;20450;-73
2023/09/03 00:48:09;;;;;;;25.40;22.90;;;;;;;;;;5028114;28;20481;-72
2023/09/03 00:50:35;;;;;;;35.20;24.77;;;;;;;;;;5027174;28;20528;-75
2023/09/03 00:53:01;;;;;;;28.90;25.87;;;;;;;;;;5025152;28;20447;-73
2023/09/03 00:55:27;;;;;;;30.47;24.97;;;;;;;;;;5032502;28;20476;-73
2023/09/03 00:57:53;;;;;;;26.87;24.03;;;;;;;;;;5037463;28;20441;-73
2023/09/03 01:00:19;;;;;;;28.53;24.63;;;;;;;;;;5023925;28;20447;-73
2023/09/03 01:02:45;;;;;;;25.27;22.70;;;;;;;;;;5030573;28;20446;-73
2023/09/03 01:05:13;;;;;;;24.80;22.40;;;;;;;;;;5031223;28;20946;-73
2023/09/03 01:07:39;;;;;;;27.40;22.60;;;;;;;;;;5024093;28;20450;-73
2023/09/03 01:10:05;;;;;;;26.70;23.27;;;;;;;;;;5035855;28;21089;-73
2023/09/03 01:12:53;;;;;;;25.27;22.67;;;;;;;;;;5028281;28;20442;-73
2023/09/03 01:15:26;;;;;;;26.17;23.60;;;;;;;;;;5039772;28;20435;-73
2023/09/03 01:17:57;;;;;;;26.70;22.47;;;;;;;;;;5030621;28;21087;-73
2023/09/03 01:20:27;;;;;;;23.83;21.20;;;;;;;;;;5028472;28;20523;-74
2023/09/03 01:23:02;;;;;;;25.20;22.50;;;;;;;;;;5030236;28;21178;-74
2023/09/03 01:25:31;;;;;;;27.00;23.67;;;;;;;;;;5033152;28;20471;-74
2023/09/03 01:28:27;;;;;;;25.87;23.40;;;;;;;;;;5034023;28;20445;-74
2023/09/03 01:30:58;;;;;;;24.33;21.90;;;;;;;;;;5020461;28;20438;-73
2023/09/03 01:33:25;;;;;;;28.73;22.67;;;;;;;;;;5028606;28;21221;-74
2023/09/03 01:35:53;;;;;;;25.70;22.90;;;;;;;;;;5033987;28;20556;-73
2023/09/03 01:38:19;;;;;;;26.67;23.97;;;;;;;;;;5027424;28;20504;-74
2023/09/03 01:40:48;;;;;;;25.43;23.00;;;;;;;;;;5031791;28;20436;-74
2023/09/03 01:43:14;;;;;;;25.57;22.90;;;;;;;;;;5027636;28;20458;-74
2023/09/03 01:45:45;;;;;;;27.27;24.37;;;;;;;;;;5026834;28;20454;-73
2023/09/03 01:48:20;;;;;;;28.43;23.20;;;;;;;;;;5037401;28;20453;-74
2023/09/03 01:51:16;;;;;;;27.03;24.13;;;;;;;;;;5028181;28;21029;-73
2023/09/03 01:54:00;;;;;;;27.07;24.27;;;;;;;;;;5001129;28;20451;-73
2023/09/03 01:56:26;;;;;;;40.33;24.60;;;;;;;;;;5022081;28;20474;-73
2023/09/03 01:58:53;;;;;;;29.60;23.30;;;;;;;;;;5033045;28;20442;-73
2023/09/03 02:01:21;;;;;;;27.23;23.10;;;;;;;;;;5030435;28;20466;-73
2023/09/03 02:03:48;;;;;;;26.70;23.03;;;;;;;;;;5025761;28;20520;-73
2023/09/03 02:06:14;;;;;;;25.37;23.00;;;;;;;;;;5035309;28;20427;-73
2023/09/03 02:08:40;;;;;;;29.53;24.57;;;;;;;;;;5031030;28;20437;-72
2023/09/03 02:11:06;;;;;;;27.43;23.57;;;;;;;;;;5025821;28;20536;-73
2023/09/03 02:13:32;;;;;;;25.97;23.40;;;;;;;;;;5022287;28;20893;-73
2023/09/03 02:15:59;;;;;;;26.50;23.53;;;;;;;;;;5033791;28;20552;-73
2023/09/03 02:18:25;;;;;;;24.40;21.93;;;;;;;;;;5032566;28;20507;-73
2023/09/03 02:20:51;;;;;;;31.90;23.90;;;;;;;;;;5033865;28;20450;-73
2023/09/03 02:23:17;;;;;;;26.30;23.40;;;;;;;;;;5036485;28;20516;-73
2023/09/03 02:25:43;;;;;;;25.47;22.77;;;;;;;;;;5031704;28;20469;-73
2023/09/03 02:28:09;;;;;;;26.13;23.50;;;;;;;;;;5026441;28;20504;-73
2023/09/03 02:30:35;;;;;;;25.87;23.17;;;;;;;;;;5029125;28;20480;-73
2023/09/03 02:33:01;;;;;;;24.33;21.83;;;;;;;;;;5033905;28;20972;-73
2023/09/03 02:35:27;;;;;;;24.53;21.93;;;;;;;;;;5037918;28;20462;-73
2023/09/03 02:37:53;;;;;;;26.20;23.40;;;;;;;;;;5034586;28;20434;-73
2023/09/03 02:40:19;;;;;;;24.60;22.10;;;;;;;;;;5035494;28;20448;-73
2023/09/03 02:42:45;;;;;;;25.53;22.43;;;;;;;;;;5040319;28;20441;-73
2023/09/03 02:45:11;;;;;;;28.77;22.17;;;;;;;;;;5037515;28;20462;-73
2023/09/03 02:47:37;;;;;;;29.83;23.30;;;;;;;;;;5031574;28;21310;-73
2023/09/03 02:50:03;;;;;;;23.90;21.30;;;;;;;;;;5034091;28;20426;-73
2023/09/03 02:52:32;;;;;;;22.63;20.33;;;;;;;;;;5039298;28;20440;-73
2023/09/03 02:54:58;;;;;;;26.10;23.50;;;;;;;;;;5039927;28;20410;-73
2023/09/03 02:57:23;;;;;;;25.53;21.80;;;;;;;;;;5019135;28;20466;-73
2023/09/03 02:59:49;;;;;;;24.47;21.87;;;;;;;;;;5030536;28;20433;-74
2023/09/03 03:02:15;;;;;;;25.80;23.07;;;;;;;;;;5034640;28;20483;-74
2023/09/03 03:04:41;;;;;;;28.60;23.53;;;;;;;;;;5026351;28;20430;-73
2023/09/03 03:07:07;;;;;;;30.43;24.63;;;;;;;;;;5034645;28;20457;-74
2023/09/03 03:09:33;;;;;;;36.00;26.60;;;;;;;;;;5029458;28;20418;-73
2023/09/03 03:11:59;;;;;;;38.83;26.87;;;;;;;;;;5032186;28;20435;-73
2023/09/03 03:14:25;;;;;;;59.77;26.53;;;;;;;;;;5031221;28;20414;-74
2023/09/03 03:16:51;;;;;;;51.10;27.87;;;;;;;;;;5035661;28;20462;-74
2023/09/03 03:19:20;;;;;;;40.37;28.17;;;;;;;;;;5038905;28;20417;-74
2023/09/03 03:21:46;;;;;;;35.87;28.70;;;;;;;;;;5033428;28;20432;-74
2023/09/03 03:24:13;;;;;;;32.10;27.57;;;;;;;;;;5035858;28;20430;-74
2023/09/03 03:26:39;;;;;;;35.33;27.13;;;;;;;;;;5035367;28;20788;-74
2023/09/03 03:29:07;;;;;;;32.10;25.43;;;;;;;;;;5034472;28;20527;-74
2023/09/03 03:31:34;;;;;;;35.77;26.67;;;;;;;;;;5035656;28;20472;-74
2023/09/03 03:34:00;;;;;;;30.73;25.80;;;;;;;;;;5026629;28;20450;-74
2023/09/03 03:36:26;;;;;;;33.40;26.63;;;;;;;;;;5034669;28;20466;-74
2023/09/03 03:38:52;;;;;;;31.07;25.43;;;;;;;;;;5028269;28;20442;-74
2023/09/03 03:41:19;;;;;;;78.00;29.00;;;;;;;;;;5032637;28;20448;-74
2023/09/03 03:43:46;;;;;;;86.30;28.90;;;;;;;;;;5022301;28;21248;-74
2023/09/03 03:46:14;;;;;;;49.93;27.03;;;;;;;;;;5033352;28;20960;-74
2023/09/03 03:48:40;;;;;;;36.00;26.97;;;;;;;;;;5028484;28;20442;-74
2023/09/03 03:51:06;;;;;;;37.17;28.00;;;;;;;;;;5029709;28;21321;-73
2023/09/03 03:53:32;;;;;;;34.40;27.03;;;;;;;;;;5031781;28;20453;-73
2023/09/03 03:56:01;;;;;;;34.37;27.90;;;;;;;;;;5039717;28;20926;-73
2023/09/03 03:58:33;;;;;;;34.33;27.30;;;;;;;;;;5033316;28;20523;-73
2023/09/03 04:00:59;;;;;;;30.33;25.70;;;;;;;;;;5028963;28;20447;-73
2023/09/03 04:03:27;;;;;;;33.77;25.77;;;;;;;;;;5026958;28;20461;-73
2023/09/03 04:05:57;;;;;;;28.30;24.30;;;;;;;;;;5023708;28;20801;-74
2023/09/03 04:08:23;;;;;;;27.33;24.43;;;;;;;;;;5024805;28;20539;-74
2023/09/03 04:11:16;;;;;;;31.93;23.63;;;;;;;;;;5031434;28;20945;-74
2023/09/03 04:13:42;;;;;;;29.10;24.77;;;;;;;;;;5032987;28;20449;-74
2023/09/03 04:16:13;;;;;;;34.73;27.00;;;;;;;;;;5031861;28;20472;-74
2023/09/03 04:18:39;;;;;;;34.07;27.53;;;;;;;;;;5029192;28;20461;-74
2023/09/03 04:21:05;;;;;;;35.20;27.63;;;;;;;;;;5036664;28;20446;-74
2023/09/03 04:23:31;;;;;;;58.57;30.80;;;;;;;;;;5032603;28;20472;-74
2023/09/03 04:25:57;;;;;;;51.40;32.20;;;;;;;;;;5035214;28;20467;-74
2023/09/03 04:28:24;;;;;;;62.00;32.40;;;;;;;;;;5028680;28;20457;-74
2023/09/03 04:30:54;;;;;;;54.20;33.77;;;;;;;;;;5038825;28;20466;-74
2023/09/03 04:33:20;;;;;;;54.80;35.87;;;;;;;;;;5030061;28;20581;-74
2023/09/03 04:35:46;;;;;;;57.07;34.80;;;;;;;;;;5036956;28;20474;-74
2023/09/03 04:38:12;;;;;;;46.50;33.10;;;;;;;;;;5028635;28;20450;-74
2023/09/03 04:40:38;;;;;;;101.93;39.47;;;;;;;;;;5032848;28;20470;-73
2023/09/03 04:43:05;;;;;;;69.63;39.57;;;;;;;;;;5034640;28;20443;-73
2023/09/03 04:45:31;;;;;;;74.90;41.90;;;;;;;;;;5027825;28;20449;-74
2023/09/03 04:47:57;;;;;;;157.50;45.43;;;;;;;;;;5027301;28;20470;-74
2023/09/03 04:50:24;;;;;;;67.33;44.30;;;;;;;;;;5033136;28;20433;-74
2023/09/03 04:52:50;;;;;;;79.03;44.23;;;;;;;;;;5034943;28;20473;-73
2023/09/03 04:55:16;;;;;;;96.37;47.10;;;;;;;;;;5027956;28;20488;-73
2023/09/03 04:57:42;;;;;;;82.93;46.30;;;;;;;;;;5021337;28;20524;-73
2023/09/03 05:00:08;;;;;;;110.30;44.37;;;;;;;;;;5027449;28;20434;-73
2023/09/03 05:02:35;;;;;;;90.60;42.50;;;;;;;;;;5025282;28;20447;-73
2023/09/03 05:05:01;;;;;;;96.97;44.83;;;;;;;;;;5023332;28;20418;-73
2023/09/03 05:07:27;;;;;;;93.23;39.97;;;;;;;;;;5021324;28;20482;-73
2023/09/03 05:09:53;;;;;;;84.97;40.90;;;;;;;;;;5016839;28;20471;-73
2023/09/03 05:12:19;;;;;;;83.63;38.60;;;;;;;;;;5029447;28;20996;-73
2023/09/03 05:14:45;;;;;;;107.27;38.83;;;;;;;;;;5024166;28;20541;-74
2023/09/03 05:17:11;;;;;;;72.83;39.50;;;;;;;;;;5024177;28;20450;-73
2023/09/03 05:19:37;;;;;;;54.63;39.60;;;;;;;;;;5027524;28;20450;-73
2023/09/03 05:22:03;;;;;;;45.93;38.67;;;;;;;;;;5027203;28;20438;-74
2023/09/03 05:24:29;;;;;;;97.80;37.77;;;;;;;;;;5023783;28;20902;-73
2023/09/03 05:26:55;;;;;;;104.80;36.60;;;;;;;;;;5016235;28;20416;-74
2023/09/03 05:29:21;;;;;;;108.63;35.90;;;;;;;;;;5028501;28;20445;-74
2023/09/03 05:31:47;;;;;;;96.50;35.10;;;;;;;;;;5023959;28;20479;-74
2023/09/03 05:34:13;;;;;;;62.47;38.20;;;;;;;;;;5025544;28;21040;-74
2023/09/03 05:36:39;;;;;;;41.77;35.70;;;;;;;;;;5028731;28;20465;-74
2023/09/03 05:39:05;;;;;;;44.23;37.20;;;;;;;;;;5024915;28;20511;-74
2023/09/03 05:41:31;;;;;;;40.70;36.10;;;;;;;;;;5027382;28;20446;-74
2023/09/03 05:43:57;;;;;;;39.33;35.03;;;;;;;;;;5032976;28;20434;-74
2023/09/03 05:46:24;;;;;;;40.97;34.90;;;;;;;;;;5023512;28;21239;-74
2023/09/03 05:48:50;;;;;;;37.50;33.63;;;;;;;;;;5029909;28;20458;-74
2023/09/03 05:51:17;;;;;;;37.70;33.60;;;;;;;;;;5019218;28;20462;-74
2023/09/03 05:53:43;;;;;;;36.97;33.07;;;;;;;;;;5032006;28;20460;-74
2023/09/03 05:56:10;;;;;;;39.00;34.20;;;;;;;;;;5019479;28;21037;-74
2023/09/03 05:58:36;;;;;;;35.90;32.40;;;;;;;;;;5025940;28;20417;-73
2023/09/03 06:01:06;;;;;;;33.63;30.03;;;;;;;;;;5024285;28;20932;-73
2023/09/03 06:03:32;;;;;;;33.13;30.03;;;;;;;;;;5020331;28;20422;-76
2023/09/03 06:06:05;;;;;;;32.10;28.90;;;;;;;;;;5029254;28;21182;-74
2023/09/03 06:08:31;;;;;;;35.67;31.80;;;;;;;;;;5024194;28;21175;-74
2023/09/03 06:10:58;;;;;;;32.00;29.13;;;;;;;;;;5028166;28;21092;-74
2023/09/03 06:13:24;;;;;;;33.10;30.10;;;;;;;;;;5030091;28;20427;-74
2023/09/03 06:15:50;;;;;;;32.83;29.80;;;;;;;;;;5031622;28;20581;-74
2023/09/03 06:18:16;;;;;;;32.27;28.97;;;;;;;;;;5024978;28;20423;-73
2023/09/03 06:20:42;;;;;;;31.73;28.87;;;;;;;;;;5029744;28;20491;-73
2023/09/03 06:23:09;;;;;;;31.00;28.17;;;;;;;;;;5017755;28;20423;-73
2023/09/03 06:25:35;;;;;;;31.93;28.97;;;;;;;;;;5032364;28;20438;-73
2023/09/03 06:28:02;;;;;;;30.30;27.47;;;;;;;;;;5029832;28;20421;-75
2023/09/03 06:30:28;;;;;;;29.00;26.50;;;;;;;;;;5025971;28;20532;-74
2023/09/03 06:32:54;;;;;;;27.60;25.30;;;;;;;;;;5028559;28;20518;-74
2023/09/03 06:35:20;;;;;;;30.77;28.07;;;;;;;;;;5016247;28;20437;-74
2023/09/03 06:37:46;;;;;;;29.73;27.07;;;;;;;;;;5032511;28;20429;-74
2023/09/03 06:40:14;;;;;;;31.03;28.23;;;;;;;;;;5029641;28;20425;-74
2023/09/03 06:42:41;;;;;;;32.90;30.00;;;;;;;;;;5022679;28;20866;-74
2023/09/03 06:45:10;;;;;;;28.67;26.07;;;;;;;;;;5024743;28;20872;-74
2023/09/03 06:47:38;;;;;;;30.37;27.77;;;;;;;;;;5021148;28;20440;-74
2023/09/03 06:50:04;;;;;;;27.10;24.80;;;;;;;;;;5027442;28;20450;-73
2023/09/03 06:52:30;;;;;;;28.20;25.57;;;;;;;;;;5024997;28;20442;-74
2023/09/03 06:54:56;;;;;;;26.53;24.43;;;;;;;;;;5034921;28;20427;-74
2023/09/03 06:57:24;;;;;;;27.90;25.60;;;;;;;;;;5017932;28;20474;-74
2023/09/03 06:59:50;;;;;;;26.77;24.57;;;;;;;;;;5027543;28;20480;-72
2023/09/03 07:02:16;;;;;;;27.67;25.27;;;;;;;;;;5026530;28;20540;-73
2023/09/03 07:04:42;;;;;;;27.30;25.10;;;;;;;;;;5038275;28;20429;-74
2023/09/03 07:07:10;;;;;;;27.30;25.00;;;;;;;;;;5024729;28;20453;-74
2023/09/03 07:09:36;;;;;;;27.40;25.00;;;;;;;;;;5022661;28;20442;-74
2023/09/03 07:12:03;;;;;;;28.17;25.73;;;;;;;;;;5029400;28;20481;-75
2023/09/03 07:14:36;;;;;;;26.50;24.10;;;;;;;;;;5033475;28;20438;-74
2023/09/03 07:17:02;;;;;;;26.90;24.70;;;;;;;;;;5029160;28;20532;-74
2023/09/03 07:19:29;;;;;;;27.03;24.93;;;;;;;;;;5004524;28;20549;-74
2023/09/03 07:21:54;;;;;;;27.77;25.57;;;;;;;;;;5029223;28;20808;-74
2023/09/03 07:24:20;;;;;;;26.20;24.13;;;;;;;;;;5024307;28;20450;-75
2023/09/03 07:26:46;;;;;;;27.67;25.20;;;;;;;;;;5021139;28;20841;-75
2023/09/03 07:29:16;;;;;;;26.13;23.93;;;;;;;;;;5022949;28;20438;-75
2023/09/03 07:31:43;;;;;;;26.97;24.87;;;;;;;;;;5014964;28;20470;-75
2023/09/03 07:34:09;;;;;;;25.60;23.50;;;;;;;;;;5018757;28;20438;-75
2023/09/03 07:36:35;;;;;;;25.60;23.50;;;;;;;;;;5010523;28;20484;-74
2023/09/03 07:39:03;;;;;;;25.30;23.30;;;;;;;;;;5004129;28;20468;-75
2023/09/03 07:41:29;;;;;;;25.40;23.50;;;;;;;;;;5007726;28;21027;-74
2023/09/03 07:43:55;;;;;;;24.53;22.53;;;;;;;;;;5009591;28;20542;-75
2023/09/03 07:46:21;;;;;;;26.73;24.63;;;;;;;;;;5016028;28;20459;-74
2023/09/03 07:48:47;;;;;;;24.50;22.60;;;;;;;;;;5016619;28;20523;-75
2023/09/03 07:51:15;;;;;;;25.00;23.10;;;;;;;;;;5017864;28;21046;-74
2023/09/03 07:53:41;;;;;;;24.57;22.67;;;;;;;;;;5023824;28;20646;-74
2023/09/03 07:56:07;;;;;;;25.03;23.20;;;;;;;;;;5023549;28;20474;-74
2023/09/03 07:58:33;;;;;;;22.87;21.17;;;;;;;;;;5023521;28;20446;-74
2023/09/03 08:01:00;;;;;;;24.60;22.80;;;;;;;;;;5010670;28;20713;-73
2023/09/03 08:03:33;;;;;;;24.33;22.43;;;;;;;;;;5019150;28;20454;-73
2023/09/03 08:06:00;;;;;;;25.50;23.60;;;;;;;;;;5014154;28;20458;-74
2023/09/03 08:08:26;;;;;;;24.77;22.87;;;;;;;;;;5010405;28;20438;-74
2023/09/03 08:10:52;;;;;;;28.10;25.77;;;;;;;;;;5023891;28;20458;-73
2023/09/03 08:13:18;;;;;;;27.20;24.90;;;;;;;;;;5013796;28;20450;-74
2023/09/03 08:15:44;;;;;;;27.13;25.00;;;;;;;;;;5018690;28;20747;-74
2023/09/03 08:18:10;;;;;;;28.60;26.40;;;;;;;;;;5023199;28;20442;-74
2023/09/03 08:20:36;;;;;;;27.63;25.43;;;;;;;;;;5015707;28;20533;-74
2023/09/03 08:23:02;;;;;;;32.33;29.73;;;;;;;;;;5019724;28;20437;-73
2023/09/03 08:25:31;;;;;;;31.60;29.10;;;;;;;;;;5020055;28;20461;-74
2023/09/03 08:27:57;;;;;;;30.37;27.77;;;;;;;;;;5012676;28;20452;-73
2023/09/03 08:30:24;;;;;;;28.43;26.23;;;;;;;;;;5021538;28;20450;-74
2023/09/03 08:32:50;;;;;;;28.33;25.93;;;;;;;;;;5019504;28;20433;-74
2023/09/03 08:35:15;;;;;;;27.80;25.53;;;;;;;;;;5022457;28;20435;-72
2023/09/03 08:37:41;;;;;;;28.90;26.60;;;;;;;;;;5011270;28;20988;-73
2023/09/03 08:40:08;;;;;;;26.60;24.60;;;;;;;;;;5015173;28;20441;-75
2023/09/03 08:42:34;;;;;;;27.37;25.27;;;;;;;;;;5026074;28;20517;-73
2023/09/03 08:45:03;;;;;;;24.33;22.60;;;;;;;;;;5018515;28;20442;-74
2023/09/03 08:47:31;;;;;;;24.20;22.50;;;;;;;;;;5024630;28;20860;-74
2023/09/03 08:49:57;;;;;;;23.63;22.03;;;;;;;;;;5018870;28;20449;-75
2023/09/03 08:52:23;;;;;;;24.43;22.77;;;;;;;;;;5019683;28;20480;-74
2023/09/03 08:54:49;;;;;;;24.40;22.63;;;;;;;;;;5014319;28;21162;-73
2023/09/03 08:57:15;;;;;;;23.23;21.63;;;;;;;;;;5017202;28;20466;-73
2023/09/03 08:59:41;;;;;;;23.23;21.63;;;;;;;;;;5013845;28;20454;-72
2023/09/03 09:02:13;;;;;;;23.27;21.60;;;;;;;;;;5019548;28;21026;-73
2023/09/03 09:04:39;;;;;;;21.97;20.57;;;;;;;;;;5018643;28;20435;-74
2023/09/03 09:07:05;;;;;;;23.20;21.47;;;;;;;;;;5020873;28;20975;-73
2023/09/03 09:09:32;;;;;;;21.70;20.20;;;;;;;;;;5015417;28;20899;-72
2023/09/03 09:12:21;;;;;;;21.93;20.57;;;;;;;;;;5025918;28;20451;-72
2023/09/03 09:14:54;;;;;;;20.00;18.80;;;;;;;;;;5017347;28;20485;-73
2023/09/03 09:17:20;;;;;;;18.30;17.13;;;;;;;;;;5021481;28;20466;-73
2023/09/03 09:19:46;;;;;;;19.93;18.73;;;;;;;;;;5026908;28;20478;-73
2023/09/03 09:22:12;;;;;;;19.37;18.10;;;;;;;;;;5020178;28;20446;-73
2023/09/03 09:24:44;;;;;;;17.70;16.60;;;;;;;;;;5018979;28;20853;-73
2023/09/03 09:27:15;;;;;;;19.23;18.03;;;;;;;;;;5022049;28;21004;-73
2023/09/03 09:29:41;;;;;;;16.83;15.93;;;;;;;;;;5019621;28;21049;-73
2023/09/03 09:32:25;;;;;;;18.77;17.67;;;;;;;;;;5024098;28;20442;-73
2023/09/03 09:34:51;;;;;;;20.40;19.00;;;;;;;;;;5019902;28;20441;-73
2023/09/03 09:39:53;;;;;;;18.53;17.43;;;;;;;;;;3115308;22;20478;-77
2023/09/03 09:42:19;;;;;;;17.70;16.60;;;;;;;;;;5019537;28;20439;-76
2023/09/03 09:44:51;;;;;;;18.60;17.30;;;;;;;;;;5016450;28;20441;-78
2023/09/03 09:47:18;;;;;;;16.13;15.20;;;;;;;;;;5018475;28;20485;-75
2023/09/03 09:49:45;;;;;;;14.70;13.80;;;;;;;;;;5018596;28;20426;-75
2023/09/03 09:52:12;;;;;;;14.53;13.43;;;;;;;;;;5019718;28;20442;-77
2023/09/03 09:54:41;;;;;;;46.10;41.37;;;;;;;;;;5020738;28;20461;-77
2023/09/03 09:57:11;;;;;;;14.23;13.33;;;;;;;;;;5010486;28;20449;-77
2023/09/03 09:59:39;;;;;;;13.47;12.40;;;;;;;;;;5017217;28;20953;-81
2023/09/03 10:02:16;;;;;;;12.67;11.83;;;;;;;;;;5015686;28;20440;-76
2023/09/03 10:04:46;;;;;;;11.53;10.87;;;;;;;;;;5011008;28;20528;-75
2023/09/03 10:07:12;;;;;;;13.80;13.00;;;;;;;;;;5025340;28;20469;-75
2023/09/03 10:09:38;;;;;;;15.20;14.20;;;;;;;;;;5012069;28;20446;-75
2023/09/03 10:12:05;;;;;;;12.13;11.63;;;;;;;;;;5029419;28;20438;-73
2023/09/03 10:14:31;;;;;;;11.60;10.97;;;;;;;;;;5013094;28;20428;-76
2023/09/03 10:17:00;;;;;;;13.03;12.17;;;;;;;;;;5022624;28;20675;-75
2023/09/03 10:19:31;;;;;;;11.80;11.10;;;;;;;;;;5019085;28;20495;-74
2023/09/03 10:22:02;;;;;;;10.77;10.17;;;;;;;;;;5022146;28;20802;-74
2023/09/03 10:24:29;;;;;;;8.67;8.27;;;;;;;;;;5021475;28;20430;-74
2023/09/03 10:27:00;;;;;;;8.53;8.13;;;;;;;;;;5014074;28;20479;-76
2023/09/03 10:29:26;;;;;;;7.20;6.70;;;;;;;;;;5009806;28;20477;-75
2023/09/03 10:31:54;;;;;;;8.67;8.07;;;;;;;;;;5023303;28;20434;-77
2023/09/03 10:34:20;;;;;;;5.50;5.10;;;;;;;;;;5012598;28;20473;-76
2023/09/03 10:37:03;;;;;;;6.43;6.10;;;;;;;;;;5011227;28;20474;-74
2023/09/03 10:39:29;;;;;;;5.90;5.70;;;;;;;;;;5015608;28;20971;-74
2023/09/03 10:42:14;;;;;;;4.70;4.60;;;;;;;;;;5016661;28;20461;-75
2023/09/03 10:44:44;;;;;;;6.17;5.87;;;;;;;;;;5023677;28;20429;-76
2023/09/03 10:47:13;;;;;;;6.23;5.93;;;;;;;;;;5009807;28;21083;-77
2023/09/03 10:49:40;;;;;;;6.30;6.00;;;;;;;;;;5023091;28;20437;-75
2023/09/03 10:52:25;;;;;;;6.13;5.73;;;;;;;;;;5022005;28;20509;-75
2023/09/03 10:55:10;;;;;;;8.53;8.10;;;;;;;;;;5019354;28;20476;-74
2023/09/03 10:57:36;;;;;;;5.87;5.50;;;;;;;;;;5017199;28;20461;-75
2023/09/03 11:00:05;;;;;;;5.10;5.00;;;;;;;;;;5018270;28;20453;-75
2023/09/03 11:02:35;;;;;;;4.93;4.83;;;;;;;;;;5021280;28;20521;-75
2023/09/03 11:05:19;;;;;;;5.07;5.00;;;;;;;;;;5014869;28;20465;-75
2023/09/03 11:07:45;;;;;;;4.40;4.20;;;;;;;;;;5023284;28;21487;-74
2023/09/03 11:10:24;;;;;;;4.40;4.20;;;;;;;;;;5014556;28;20465;-76
2023/09/03 11:12:51;;;;;;;4.80;4.63;;;;;;;;;;5020042;28;20444;-75
2023/09/03 11:15:18;;;;;;;6.30;5.83;;;;;;;;;;5021602;28;20465;-76
2023/09/03 11:17:55;;;;;;;6.13;5.93;;;;;;;;;;5024355;28;20442;-73
2023/09/03 11:20:34;;;;;;;5.87;5.57;;;;;;;;;;5028276;28;20414;-74
2023/09/03 11:23:01;;;;;;;5.80;5.67;;;;;;;;;;5029310;28;20768;-75
2023/09/03 11:25:35;;;;;;;5.50;5.30;;;;;;;;;;5026585;28;20921;-74
2023/09/03 11:28:01;;;;;;;4.43;4.33;;;;;;;;;;5022384;28;20435;-74
2023/09/03 11:30:28;;;;;;;4.60;4.50;;;;;;;;;;5026557;28;20920;-74
2023/09/03 11:33:08;;;;;;;4.80;4.70;;;;;;;;;;5019840;28;20720;-74
2023/09/03 11:35:42;;;;;;;3.70;3.70;;;;;;;;;;5019705;28;20486;-74
2023/09/03 11:38:08;;;;;;;3.67;3.67;;;;;;;;;;5017815;28;20455;-75
2023/09/03 11:40:34;;;;;;;3.70;3.67;;;;;;;;;;5025847;28;20561;-75
2023/09/03 11:43:00;;;;;;;4.60;4.20;;;;;;;;;;5014546;28;20458;-75
2023/09/03 11:45:30;;;;;;;4.30;4.10;;;;;;;;;;5025636;28;20441;-76
2023/09/03 11:47:57;;;;;;;4.63;4.37;;;;;;;;;;5014500;28;20974;-75
2023/09/03 11:50:23;;;;;;;5.03;4.60;;;;;;;;;;5020343;28;20442;-75
2023/09/03 11:52:49;;;;;;;5.50;5.23;;;;;;;;;;5023983;28;20473;-75
2023/09/03 11:55:16;;;;;;;6.43;6.10;;;;;;;;;;5018949;28;20422;-75
2023/09/03 11:57:43;;;;;;;7.60;7.30;;;;;;;;;;5023557;28;20431;-76
2023/09/03 12:00:15;;;;;;;7.10;6.70;;;;;;;;;;5021816;28;20439;-75
2023/09/03 12:02:42;;;;;;;8.07;7.70;;;;;;;;;;5024064;28;20485;-75
2023/09/03 12:05:08;;;;;;;8.70;8.10;;;;;;;;;;5030230;28;20603;-75
2023/09/03 12:07:34;;;;;;;11.07;10.40;;;;;;;;;;5029094;28;20505;-76
2023/09/03 12:10:00;;;;;;;13.40;12.60;;;;;;;;;;5022085;28;21080;-75
2023/09/03 12:12:27;;;;;;;9.23;8.70;;;;;;;;;;5021422;28;20538;-75
2023/09/03 12:14:53;;;;;;;9.70;9.00;;;;;;;;;;5020687;28;20533;-75
2023/09/03 12:17:26;;;;;;;7.77;7.40;;;;;;;;;;5018495;28;20438;-75
2023/09/03 12:19:52;;;;;;;8.57;8.17;;;;;;;;;;5024463;28;20427;-78
2023/09/03 12:22:19;;;;;;;8.47;8.07;;;;;;;;;;5020295;28;20445;-75
2023/09/03 12:24:48;;;;;;;7.90;7.20;;;;;;;;;;5017665;28;21201;-77
2023/09/03 12:27:14;;;;;;;6.57;6.37;;;;;;;;;;5033665;28;20461;-76
2023/09/03 12:29:40;;;;;;;7.23;6.90;;;;;;;;;;5022687;28;20443;-76
2023/09/03 12:32:10;;;;;;;7.13;6.83;;;;;;;;;;5025866;28;20774;-75
2023/09/03 12:34:38;;;;;;;7.43;6.93;;;;;;;;;;5026065;28;20427;-75
2023/09/03 12:37:05;;;;;;;8.30;7.67;;;;;;;;;;5034448;28;21005;-76
2023/09/03 12:39:31;;;;;;;6.80;6.53;;;;;;;;;;5015575;28;20539;-75
2023/09/03 12:41:57;;;;;;;7.23;6.93;;;;;;;;;;5020460;28;20464;-76
2023/09/03 12:44:25;;;;;;;8.77;8.00;;;;;;;;;;5025703;28;20552;-75
2023/09/03 12:46:51;;;;;;;8.30;7.87;;;;;;;;;;5016195;28;20459;-74
2023/09/03 12:49:17;;;;;;;8.73;8.10;;;;;;;;;;5020150;28;20576;-75
2023/09/03 12:51:43;;;;;;;9.33;8.83;;;;;;;;;;5029701;28;20815;-76
2023/09/03 12:54:09;;;;;;;8.60;7.90;;;;;;;;;;5006471;28;20440;-75
2023/09/03 12:56:36;;;;;;;6.90;6.40;;;;;;;;;;5024786;28;20434;-73
2023/09/03 12:59:06;;;;;;;7.10;6.80;;;;;;;;;;5014456;28;20410;-74
2023/09/03 13:01:32;;;;;;;7.30;6.90;;;;;;;;;;5014539;28;21291;-74
2023/09/03 13:03:58;;;;;;;5.70;5.50;;;;;;;;;;5032098;28;20436;-75
2023/09/03 13:06:24;;;;;;;5.90;5.70;;;;;;;;;;5032870;28;20475;-75
2023/09/03 13:08:50;;;;;;;5.43;5.33;;;;;;;;;;5024025;28;20415;-74
2023/09/03 13:11:18;;;;;;;6.20;5.87;;;;;;;;;;5019105;28;20431;-73
2023/09/03 13:13:49;;;;;;;7.60;5.87;;;;;;;;;;5009539;28;20869;-74
2023/09/03 13:16:16;;;;;;;6.13;5.83;;;;;;;;;;5022694;28;20779;-72
2023/09/03 13:18:42;;;;;;;4.80;4.67;;;;;;;;;;5026098;28;20414;-73
2023/09/03 13:21:08;;;;;;;4.03;3.93;;;;;;;;;;5014031;28;20691;-74
2023/09/03 13:23:34;;;;;;;3.20;3.20;;;;;;;;;;5009770;28;20840;-74
2023/09/03 13:26:00;;;;;;;4.63;4.63;;;;;;;;;;5033356;28;20458;-74
2023/09/03 13:28:26;;;;;;;3.57;3.57;;;;;;;;;;5021708;28;20447;-74
2023/09/03 13:30:52;;;;;;;4.40;4.30;;;;;;;;;;5016237;28;20860;-75
2023/09/03 13:33:18;;;;;;;4.47;4.23;;;;;;;;;;5020628;28;20439;-74
2023/09/03 13:35:50;;;;;;;4.53;4.40;;;;;;;;;;5011761;28;20522;-74
2023/09/03 13:38:16;;;;;;;4.30;4.20;;;;;;;;;;5015709;28;20561;-74
2023/09/03 13:40:42;;;;;;;4.53;4.37;;;;;;;;;;5012599;28;20554;-74
2023/09/03 13:43:08;;;;;;;6.63;6.43;;;;;;;;;;5021166;28;20797;-74
2023/09/03 13:45:34;;;;;;;4.53;4.43;;;;;;;;;;5020320;28;20434;-74
2023/09/03 13:48:00;;;;;;;6.00;5.77;;;;;;;;;;5013626;28;20438;-74
2023/09/03 13:50:27;;;;;;;5.30;5.10;;;;;;;;;;5017433;28;20442;-75
2023/09/03 13:52:57;;;;;;;6.00;5.80;;;;;;;;;;5019896;28;20463;-74
2023/09/03 13:55:24;;;;;;;5.53;5.33;;;;;;;;;;5015478;28;20442;-75
2023/09/03 13:57:50;;;;;;;6.33;6.07;;;;;;;;;;5020020;28;20500;-74
2023/09/03 14:00:45;;;;;;;5.80;5.60;;;;;;;;;;5010328;28;20442;-75
2023/09/03 14:03:11;;;;;;;5.30;5.20;;;;;;;;;;4999503;28;20501;-74
2023/09/03 14:05:37;;;;;;;5.50;5.40;;;;;;;;;;5017745;28;20785;-74
2023/09/03 14:08:03;;;;;;;5.13;5.07;;;;;;;;;;5010742;28;20565;-74
2023/09/03 14:10:29;;;;;;;5.73;5.17;;;;;;;;;;5019355;28;20457;-74
2023/09/03 14:12:55;;;;;;;5.03;4.60;;;;;;;;;;5017967;28;20949;-75
2023/09/03 14:15:22;;;;;;;5.50;5.20;;;;;;;;;;5024958;28;20437;-74
2023/09/03 14:17:48;;;;;;;4.90;4.80;;;;;;;;;;5023844;28;20599;-73
2023/09/03 14:20:14;;;;;;;5.10;4.77;;;;;;;;;;5026230;28;20426;-74
2023/09/03 14:22:42;;;;;;;4.50;4.30;;;;;;;;;;5030358;28;20875;-75
2023/09/03 14:25:08;;;;;;;5.67;5.20;;;;;;;;;;5025402;28;20430;-74
2023/09/03 14:27:34;;;;;;;5.10;4.87;;;;;;;;;;5028997;28;20821;-74
2023/09/03 14:30:00;;;;;;;5.13;4.83;;;;;;;;;;5005355;28;20435;-75